createdAt,value
2022-09-07T00:07:46.486Z,2.2
2022-09-07T00:11:50.185Z,1.9
2022-09-07T00:15:53.916Z,1.7
2022-09-07T00:17:55.694Z,1.5
2022-09-07T00:19:57.526Z,0.9
2022-09-07T00:22:02.636Z,1.2
2022-09-07T00:26:06.319Z,1.6
2022-09-07T00:27:08.880Z,0.8
2022-09-07T00:29:10.711Z,1.1
2022-09-07T00:31:12.623Z,0.8
2022-09-07T00:35:19.473Z,0.7
2022-09-07T00:37:21.317Z,1
2022-09-07T00:39:23.167Z,1
2022-09-07T00:41:24.994Z,0.5
2022-09-07T00:43:26.831Z,0.7
2022-09-07T00:45:28.857Z,0.5
2022-09-07T00:49:35.624Z,0.8
2022-09-07T00:51:37.493Z,0.7
2022-09-07T00:53:39.311Z,0.8
2022-09-07T00:57:43.027Z,1
2022-09-07T00:59:44.851Z,1
2022-09-07T01:01:46.770Z,0.8
2022-09-07T01:03:51.768Z,0.6
2022-09-07T01:07:55.452Z,1.1
2022-09-07T01:09:57.293Z,0.5
2022-09-07T01:11:59.127Z,0.6
2022-09-07T01:14:00.979Z,1
2022-09-07T01:16:02.922Z,0.8
2022-09-07T01:18:07.908Z,0.7
2022-09-07T01:20:09.756Z,0.6
2022-09-07T01:22:11.591Z,0.6
2022-09-07T01:25:15.979Z,0.7
2022-09-07T01:27:17.844Z,0.9
2022-09-07T01:29:19.681Z,0.7
2022-09-07T01:31:24.828Z,0.8
2022-09-07T01:33:26.708Z,1.1
2022-09-07T01:35:28.449Z,0.8
2022-09-07T01:37:30.300Z,1
2022-09-07T01:39:32.198Z,0.7
2022-09-07T01:41:33.977Z,0.9
2022-09-07T01:43:35.825Z,1
2022-09-07T01:47:42.755Z,0.9
2022-09-07T01:51:46.447Z,0.7
2022-09-07T01:53:48.459Z,0.8
2022-09-07T01:55:50.136Z,1.5
2022-09-07T01:57:51.974Z,1.6
2022-09-07T01:59:57.071Z,1.2
2022-09-07T02:01:58.947Z,0.8
2022-09-07T02:04:00.804Z,0.8
2022-09-07T02:06:02.630Z,1.2
2022-09-07T02:08:04.466Z,0.9
2022-09-07T02:10:06.327Z,1.3
2022-09-07T02:12:08.146Z,1
2022-09-07T02:14:13.291Z,1.7
2022-09-07T02:16:15.122Z,1.1
2022-09-07T02:18:16.912Z,1.5
2022-09-07T02:19:19.475Z,1
2022-09-07T02:21:21.300Z,1.1
2022-09-07T02:23:23.144Z,1.2
2022-09-07T02:25:24.968Z,1.3
2022-09-07T02:27:30.094Z,0.7
2022-09-07T02:29:31.936Z,1.3
2022-09-07T02:31:35.359Z,1.5
2022-09-07T02:33:37.119Z,0.9
2022-09-07T02:41:47.772Z,1
2022-09-07T02:43:49.599Z,1.1
2022-09-07T02:45:51.465Z,1.3
2022-09-07T02:47:53.266Z,1
2022-09-07T02:49:55.140Z,1.3
2022-09-07T02:51:56.961Z,1.1
2022-09-07T02:53:58.799Z,1.1
2022-09-07T02:56:03.892Z,0.9
2022-09-07T02:58:05.750Z,1.3
2022-09-07T03:00:07.577Z,1.2
2022-09-07T03:02:09.457Z,1
2022-09-07T03:04:11.273Z,1.1
2022-09-07T03:06:13.143Z,3
2022-09-07T03:08:14.949Z,1.8
2022-09-07T03:10:20.056Z,0.8
2022-09-07T03:12:21.900Z,1.1
2022-09-07T03:14:23.722Z,1.2
2022-09-07T03:16:52.458Z,1.6
2022-09-07T03:18:54.311Z,1.2
2022-09-07T03:20:56.143Z,1
2022-09-07T03:23:01.233Z,1.2
2022-09-07T03:25:03.085Z,1.6
2022-09-07T03:27:04.927Z,1.5
2022-09-07T03:29:06.780Z,1.2
2022-09-07T03:31:08.741Z,1.2
2022-09-07T03:35:14.253Z,0.8
2022-09-07T03:37:17.397Z,1.4
2022-09-07T03:39:19.227Z,1.5
2022-09-07T03:41:21.088Z,1.4
2022-09-07T03:43:22.924Z,1.6
2022-09-07T03:45:24.771Z,1.3
2022-09-07T03:47:26.606Z,1.5
2022-09-07T03:49:28.457Z,1.4
2022-09-07T03:51:33.550Z,1.6
2022-09-07T03:53:35.415Z,1
2022-09-07T03:55:37.215Z,1.6
2022-09-07T03:57:39.057Z,1.5
2022-09-07T03:59:40.899Z,2.1
2022-09-07T04:01:42.947Z,1.6
2022-09-07T04:03:44.589Z,1.9
2022-09-07T04:05:49.692Z,1.5
2022-09-07T04:07:51.506Z,2.1
2022-09-07T04:09:53.391Z,1.8
2022-09-07T04:10:55.913Z,1.5
2022-09-07T04:12:57.760Z,1.8
2022-09-07T04:23:10.225Z,3.1
2022-09-07T04:25:12.055Z,1.6
2022-09-07T04:27:13.893Z,1.5
2022-09-07T04:29:15.753Z,1.5
2022-09-07T04:31:17.654Z,1.4
2022-09-07T04:33:22.673Z,2.4
2022-09-07T04:35:24.504Z,1.4
2022-09-07T04:37:26.353Z,1.6
2022-09-07T04:39:28.247Z,2.4
2022-09-07T04:41:30.038Z,2.2
2022-09-07T04:43:31.976Z,2
2022-09-07T04:45:33.690Z,2.3
2022-09-07T04:47:38.788Z,2.1
2022-09-07T04:49:40.641Z,2.7
2022-09-07T04:51:42.477Z,1.9
2022-09-07T04:55:46.150Z,2
2022-09-07T04:57:47.995Z,1.8
2022-09-07T04:59:49.835Z,2.4
2022-09-07T05:01:55.015Z,5.1
2022-09-07T05:03:56.775Z,5.9
2022-09-07T05:05:58.606Z,5
2022-09-07T05:07:01.127Z,3.4
2022-09-07T05:09:02.989Z,3
2022-09-07T05:11:04.812Z,2.6
2022-09-07T05:15:11.766Z,2.6
2022-09-07T05:17:13.593Z,2.5
2022-09-07T05:19:15.437Z,2.2
2022-09-07T05:27:22.789Z,4.4
2022-09-07T05:31:29.712Z,2.7
2022-09-07T05:35:33.395Z,3.2
2022-09-07T05:37:35.249Z,2.9
2022-09-07T05:39:37.167Z,3
2022-09-07T05:41:38.903Z,2.3
2022-09-07T05:45:45.903Z,3.7
2022-09-07T05:47:47.679Z,3.6
2022-09-07T05:49:51.926Z,3.8
2022-09-07T05:55:55.021Z,5.5
2022-09-07T06:00:01.967Z,5.5
2022-09-07T06:02:04.013Z,5.3
2022-09-07T06:03:06.477Z,5.8
2022-09-07T06:05:08.178Z,6
2022-09-07T06:07:21.155Z,6.7
2022-09-07T06:09:11.847Z,7.1
2022-09-07T06:11:16.934Z,9.9
2022-09-07T06:13:18.801Z,9.2
2022-09-07T06:15:20.600Z,9.9
2022-09-07T06:17:22.436Z,9.3
2022-09-07T06:19:24.298Z,8.9
2022-09-07T06:21:26.098Z,10.6
2022-09-07T06:25:33.037Z,9.4
2022-09-07T06:27:34.879Z,10.7
2022-09-07T06:29:36.718Z,10.7
2022-09-07T06:33:40.384Z,9.6
2022-09-07T06:35:42.223Z,10.4
2022-09-07T06:37:44.074Z,10.4
2022-09-07T06:39:49.210Z,11.1
2022-09-07T06:43:52.829Z,10.5
2022-09-07T06:45:54.708Z,11.8
2022-09-07T06:47:56.494Z,11.8
2022-09-07T06:49:58.349Z,12.2
2022-09-07T06:52:00.200Z,10.9
2022-09-07T06:56:07.106Z,12
2022-09-07T06:58:08.917Z,11.3
2022-09-07T07:00:37.663Z,11.1
2022-09-07T07:02:39.468Z,10.3
2022-09-07T07:04:41.528Z,10
2022-09-07T07:08:48.197Z,10.4
2022-09-07T07:10:50.058Z,10.8
2022-09-07T07:12:51.885Z,9.8
2022-09-07T07:14:53.727Z,10.6
2022-09-07T07:16:55.553Z,15.3
2022-09-07T07:18:57.371Z,9.9
2022-09-07T07:21:02.463Z,13.1
2022-09-07T07:23:04.279Z,8.8
2022-09-07T07:25:06.128Z,10
2022-09-07T07:27:07.964Z,9.5
2022-09-07T07:35:18.507Z,9.8
2022-09-07T07:37:22.776Z,8.5
2022-09-07T07:41:54.470Z,9
2022-09-07T07:43:25.823Z,7.6
2022-09-07T07:45:55.135Z,8.5
2022-09-07T07:47:29.465Z,8.8
2022-09-07T07:49:35.689Z,7.4
2022-09-07T07:53:42.257Z,6.7
2022-09-07T08:00:54.393Z,7.3
2022-09-07T08:02:51.335Z,4.4
2022-09-07T08:04:53.104Z,5.6
2022-09-07T08:06:54.934Z,5
2022-09-07T08:08:56.718Z,6
2022-09-07T08:10:58.518Z,6.3
2022-09-07T08:13:00.331Z,6.7
2022-09-07T08:15:02.196Z,6.3
2022-09-07T08:17:07.272Z,6.5
2022-09-07T08:19:09.087Z,6.7
2022-09-07T08:21:10.896Z,6.5
2022-09-07T08:23:14.267Z,6.3
2022-09-07T08:25:16.070Z,6.1
2022-09-07T08:27:17.884Z,9.5
2022-09-07T08:29:19.679Z,7.5
2022-09-07T08:31:24.803Z,10.1
2022-09-07T08:33:26.648Z,7.5
2022-09-07T08:35:28.427Z,6.9
2022-09-07T08:37:30.231Z,6.6
2022-09-07T08:39:32.124Z,6
2022-09-07T08:41:33.733Z,5.3
2022-09-07T08:43:35.545Z,6.6
2022-09-07T08:45:40.633Z,7.2
2022-09-07T08:47:42.427Z,6
2022-09-07T08:49:44.213Z,5.9
2022-09-07T08:52:48.552Z,6.2
2022-09-07T08:57:20.996Z,6.3
2022-09-07T08:58:57.003Z,6.4
2022-09-07T09:03:30.095Z,6.3
2022-09-07T09:05:18.409Z,5.8
2022-09-07T09:11:07.168Z,6.5
2022-09-07T09:15:13.694Z,7.5
2022-09-07T09:19:17.085Z,6.9
2022-09-07T09:21:18.769Z,5.4
2022-09-07T09:23:20.447Z,5.7
2022-09-07T09:25:22.074Z,5.2
2022-09-07T09:27:26.953Z,4.6
2022-09-07T09:29:28.724Z,6.5
2022-09-07T09:31:30.574Z,5.5
2022-09-07T09:33:32.176Z,5.7
2022-09-07T09:35:33.827Z,4.5
2022-09-07T09:37:35.522Z,5.6
2022-09-07T09:39:37.233Z,5.2
2022-09-07T09:41:42.054Z,5.3
2022-09-07T09:43:43.712Z,5.7
2022-09-07T09:46:12.802Z,4.9
2022-09-07T09:46:48.145Z,6
2022-09-07T09:48:49.489Z,5.3
2022-09-07T09:52:52.821Z,4.9
2022-09-07T09:55:00.166Z,5.6
2022-09-07T09:56:59.342Z,4.3
2022-09-07T09:59:56.778Z,5.2
2022-09-07T10:07:07.603Z,5.7
2022-09-07T10:09:12.438Z,4.8
2022-09-07T10:11:14.118Z,4.9
2022-09-07T10:15:17.385Z,4.4
2022-09-07T10:17:19.028Z,5.4
2022-09-07T10:19:20.657Z,5.2
2022-09-07T10:21:22.296Z,4.2
2022-09-07T10:23:27.136Z,4.9
2022-09-07T10:25:28.732Z,4.6
2022-09-07T10:27:30.362Z,4.3
2022-09-07T10:29:31.974Z,5.7
2022-09-07T10:31:33.622Z,4.9
2022-09-07T10:33:35.223Z,5.1
2022-09-07T10:35:37.377Z,4.3
2022-09-07T10:37:41.649Z,4.4
2022-09-07T10:39:43.310Z,5.6
2022-09-07T10:41:44.859Z,3.9
2022-09-07T10:44:13.246Z,6.3
2022-09-07T10:46:55.858Z,6.8
2022-09-07T10:48:16.411Z,8.3
2022-09-07T10:50:22.633Z,6.8
2022-09-07T10:52:22.811Z,9
2022-09-07T10:54:31.861Z,3.9
2022-09-07T10:56:25.969Z,4.1
2022-09-07T11:00:29.141Z,4.1
2022-09-07T11:02:30.774Z,9.9
2022-09-07T11:04:35.490Z,3.2
2022-09-07T11:06:37.083Z,3.2
2022-09-07T11:10:40.233Z,2.9
2022-09-07T11:12:41.842Z,3.2
2022-09-07T11:14:43.429Z,3.6
2022-09-07T11:18:50.113Z,3.6
2022-09-07T11:20:51.438Z,3
2022-09-07T11:35:05.837Z,3.7
2022-09-07T11:37:07.454Z,4.9
2022-09-07T11:38:09.822Z,3.7
2022-09-07T11:40:11.530Z,2.2
2022-09-07T11:42:43.165Z,3.1
2022-09-07T11:44:14.632Z,3.5
2022-09-07T11:46:19.505Z,4
2022-09-07T11:48:21.038Z,2.8
2022-09-07T11:50:22.623Z,3.7
2022-09-07T11:52:24.256Z,2.9
2022-09-07T11:54:25.852Z,3.3
2022-09-07T11:56:27.432Z,3.7
2022-09-07T11:58:29.122Z,3.9
2022-09-07T12:04:37.106Z,3.1
2022-09-07T12:06:38.682Z,3.5
2022-09-07T12:08:40.265Z,3
2022-09-07T12:10:41.872Z,3.5
2022-09-07T12:12:43.477Z,3.1
2022-09-07T12:14:48.276Z,3.4
2022-09-07T12:16:49.873Z,3.5
2022-09-07T12:18:51.479Z,2.6
2022-09-07T12:20:53.096Z,3.2
2022-09-07T12:22:54.683Z,5.1
2022-09-07T12:24:56.316Z,2.4
2022-09-07T12:26:57.917Z,9
2022-09-07T12:29:02.729Z,3.1
2022-09-07T12:34:08.396Z,2.6
2022-09-07T12:36:10.028Z,1.8
2022-09-07T12:38:11.665Z,2.1
2022-09-07T12:40:13.318Z,2.1
2022-09-07T12:42:36.737Z,1.7
2022-09-07T12:44:19.743Z,1.7
2022-09-07T12:46:21.476Z,1.4
2022-09-07T12:48:23.005Z,0.7
2022-09-07T12:50:24.637Z,0.8
2022-09-07T12:52:26.280Z,1.6
2022-09-07T12:54:27.948Z,1.7
2022-09-07T12:58:34.406Z,1.9
2022-09-07T13:00:36.091Z,3.9
2022-09-07T13:02:37.801Z,2.2
2022-09-07T13:04:39.329Z,1.9
2022-09-07T13:07:03.111Z,3.7
2022-09-07T13:08:42.589Z,4.5
2022-09-07T13:10:47.423Z,1.7
2022-09-07T13:12:57.398Z,2.1
2022-09-07T13:14:51.001Z,1.7
2022-09-07T13:17:16.674Z,1.3
2022-09-07T13:22:57.263Z,1.8
2022-09-07T13:25:02.113Z,1.4
2022-09-07T13:30:07.800Z,1.5
2022-09-07T13:32:09.418Z,1.3
2022-09-07T13:34:11.075Z,1.1
2022-09-07T13:38:17.545Z,1.4
2022-09-07T13:40:19.202Z,2
2022-09-07T13:42:20.841Z,1.9
2022-09-07T13:44:25.804Z,2.8
2022-09-07T13:46:24.218Z,0.9
2022-09-07T13:48:25.777Z,1.2
2022-09-07T13:50:27.417Z,1.6
2022-09-07T13:52:32.240Z,1.3
2022-09-07T13:54:33.884Z,1.1
2022-09-07T13:56:35.516Z,1.4
2022-09-07T13:58:37.159Z,1.2
2022-09-07T14:00:38.803Z,0.9
2022-09-07T14:02:40.503Z,2.9
2022-09-07T14:04:42.071Z,1
2022-09-07T14:06:46.917Z,1.2
2022-09-07T14:08:48.550Z,0.7
2022-09-07T14:10:50.204Z,1
2022-09-07T14:12:51.859Z,0.7
2022-09-07T14:14:55.046Z,1
2022-09-07T14:16:56.692Z,1.9
2022-09-07T14:18:58.273Z,1.2
2022-09-07T14:21:03.104Z,0.9
2022-09-07T14:23:04.738Z,0.8
2022-09-07T14:25:06.379Z,0.7
2022-09-07T14:27:34.784Z,1.2
2022-09-07T14:29:36.446Z,0.7
2022-09-07T14:31:38.065Z,1
2022-09-07T14:33:46.638Z,1.1
2022-09-07T14:35:44.534Z,1.1
2022-09-07T14:37:40.367Z,0.8
2022-09-07T14:39:42.100Z,1.2
2022-09-07T14:41:43.642Z,1.3
2022-09-07T14:43:45.304Z,1.3
2022-09-07T14:45:46.972Z,0.9
2022-09-07T14:47:52.267Z,1.7
2022-09-07T14:49:53.390Z,1.4
2022-09-07T14:51:55.049Z,1.7
2022-09-07T14:53:56.690Z,2.7
2022-09-07T14:55:58.610Z,0.7
2022-09-07T14:58:02.941Z,0.7
2022-09-07T15:00:01.632Z,1.1
2022-09-07T15:02:06.483Z,6.9
2022-09-07T15:08:11.437Z,1.2
2022-09-07T15:10:13.020Z,1.4
2022-09-07T15:12:14.670Z,1.2
2022-09-07T15:14:16.380Z,6.2
2022-09-07T15:16:22.293Z,2.4
2022-09-07T15:18:22.832Z,1.5
2022-09-07T15:20:24.442Z,1
2022-09-07T15:21:26.878Z,1
2022-09-07T15:23:28.537Z,2.4
2022-09-07T15:25:30.633Z,1.3
2022-09-07T15:27:31.849Z,1.1
2022-09-07T15:29:36.666Z,0.9
2022-09-07T15:31:41.684Z,0.7
2022-09-07T15:33:39.994Z,5.7
2022-09-07T15:35:41.789Z,1.3
2022-09-07T15:38:04.939Z,1.1
2022-09-07T15:39:44.959Z,0.8
2022-09-07T15:41:46.590Z,1.4
2022-09-07T15:43:51.423Z,0.9
2022-09-07T15:45:53.152Z,1
2022-09-07T15:47:54.800Z,0.6
2022-09-07T15:49:56.394Z,0.9
2022-09-07T15:52:05.861Z,1.5
2022-09-07T15:54:11.543Z,1
2022-09-07T15:56:03.156Z,0.9
2022-09-07T15:58:11.939Z,0.9
2022-09-07T16:00:07.853Z,1.9
2022-09-07T16:04:11.342Z,1.2
2022-09-07T16:06:13.941Z,1
2022-09-07T16:14:22.620Z,0.9
2022-09-07T16:17:26.577Z,0.6
2022-09-07T16:17:27.431Z,1.3
2022-09-07T16:19:28.383Z,0.8
2022-09-07T16:21:30.019Z,0.6
2022-09-07T16:25:36.512Z,6.5
2022-09-07T16:27:38.188Z,1.1
2022-09-07T16:29:39.856Z,0.7
2022-09-07T16:32:43.996Z,0.9
2022-09-07T16:33:43.270Z,1
2022-09-07T16:35:44.837Z,1.7
2022-09-07T16:39:51.495Z,1.8
2022-09-07T16:41:53.034Z,1
2022-09-07T16:43:54.887Z,0.9
2022-09-07T16:46:04.051Z,1.3
2022-09-07T16:47:58.048Z,0.7
2022-09-07T16:49:59.733Z,1.7
2022-09-07T16:52:01.409Z,1.6
2022-09-07T16:54:06.268Z,1.9
2022-09-07T16:56:07.935Z,1.4
2022-09-07T16:58:36.271Z,1.7
2022-09-07T17:00:11.308Z,3.8
2022-09-07T17:02:12.988Z,1.5
2022-09-07T17:04:14.703Z,2.9
2022-09-07T17:06:16.345Z,5.8
2022-09-07T17:08:21.175Z,3
2022-09-07T17:10:22.873Z,5.2
2022-09-07T17:12:24.563Z,1.6
2022-09-07T17:13:26.995Z,2.1
2022-09-07T17:21:36.919Z,1.2
2022-09-07T17:25:40.488Z,1.7
2022-09-07T17:27:44.089Z,1.4
2022-09-07T17:29:43.851Z,1.6
2022-09-07T17:33:47.237Z,2.3
2022-09-07T17:35:52.110Z,1.2
2022-09-07T17:37:53.987Z,1.1
2022-09-07T17:39:56.671Z,0.7
2022-09-07T17:41:57.198Z,0.7
2022-09-07T17:43:59.095Z,1.6
2022-09-07T17:46:00.601Z,2.3
2022-09-07T17:48:02.283Z,2.9
2022-09-07T17:50:07.157Z,1.6
2022-09-07T17:52:08.846Z,1.5
2022-09-07T17:54:11.583Z,1.7
2022-09-07T17:56:12.369Z,1.2
2022-09-07T17:58:14.144Z,1.4
2022-09-07T18:00:15.872Z,1.4
2022-09-07T18:02:17.566Z,1.4
2022-09-07T18:04:22.503Z,2.2
2022-09-07T18:06:24.250Z,3.7
2022-09-07T18:12:56.262Z,2.5
2022-09-07T18:14:57.987Z,1.6
2022-09-07T18:17:02.873Z,9.4
2022-09-07T18:19:04.571Z,7.4
2022-09-07T18:23:07.986Z,5.5
2022-09-07T18:25:10.349Z,2.2
2022-09-07T18:33:20.198Z,1.3
2022-09-07T18:35:21.944Z,1.2
2022-09-07T18:37:23.656Z,2.2
2022-09-07T18:39:25.464Z,2.1
2022-09-07T18:41:27.257Z,2
2022-09-07T18:43:29.164Z,1.8
2022-09-07T18:45:34.154Z,1.2
2022-09-07T18:47:35.799Z,7.1
2022-09-07T18:49:37.506Z,2.6
2022-09-07T18:53:40.921Z,1.7
2022-09-07T18:55:42.637Z,3.5
2022-09-07T18:57:44.924Z,1.6
2022-09-07T18:59:49.227Z,2.1
2022-09-07T19:01:51.109Z,2.5
2022-09-07T19:03:52.683Z,2.1
2022-09-07T19:06:56.935Z,1.5
2022-09-07T19:08:58.651Z,2.4
2022-09-07T19:11:00.450Z,4.1
2022-09-07T19:13:05.562Z,2.4
2022-09-07T19:15:07.385Z,2.7
2022-09-07T19:17:09.179Z,3.1
2022-09-07T19:19:11.032Z,3.3
2022-09-07T19:21:16.711Z,3.8
2022-09-07T19:23:14.638Z,3.6
2022-09-07T19:25:16.460Z,2.7
2022-09-07T19:27:21.560Z,3.7
2022-09-07T19:29:23.404Z,3.1
2022-09-07T19:31:25.262Z,3.2
2022-09-07T19:35:28.823Z,1.7
2022-09-07T19:37:30.649Z,2.1
2022-09-07T19:39:32.596Z,2.4
2022-09-07T19:41:37.555Z,2.7
2022-09-07T19:43:39.384Z,2.4
2022-09-07T19:45:41.210Z,2.3
2022-09-07T19:47:43.044Z,2.6
2022-09-07T19:49:44.866Z,3.1
2022-09-07T19:51:46.671Z,2.5
2022-09-07T19:53:48.512Z,3.2
2022-09-07T19:55:53.604Z,2.5
2022-09-07T19:57:55.437Z,2.6
2022-09-07T20:00:59.864Z,3
2022-09-07T20:03:01.682Z,6
2022-09-07T20:05:05.035Z,3.2
2022-09-07T20:07:06.816Z,2.3
2022-09-07T20:09:11.913Z,31.8
2022-09-07T20:11:13.746Z,11.3
2022-09-07T20:13:15.567Z,3.4
2022-09-07T20:15:17.394Z,2
2022-09-07T20:17:19.242Z,2
2022-09-07T20:19:21.110Z,2
2022-09-07T20:21:22.880Z,1.8
2022-09-07T20:23:27.976Z,2.6
2022-09-07T20:27:31.642Z,1.6
2022-09-07T20:29:33.490Z,1.9
2022-09-07T20:35:38.992Z,1.6
2022-09-07T20:37:44.116Z,1.9
2022-09-07T20:39:45.939Z,5.7
2022-09-07T20:41:47.751Z,2.6
2022-09-07T20:43:49.588Z,2.3
2022-09-07T20:45:51.425Z,2.5
2022-09-07T20:47:53.266Z,3.8
2022-09-07T20:49:55.107Z,2.7
2022-09-07T20:52:00.197Z,2.5
2022-09-07T20:54:02.021Z,2.9
2022-09-07T20:56:03.870Z,3.6
2022-09-07T20:57:06.403Z,3.2
2022-09-07T20:59:08.235Z,2.9
2022-09-07T21:01:10.147Z,3.4
2022-09-07T21:03:11.923Z,3.3
2022-09-07T21:05:17.050Z,3.5
2022-09-07T21:07:18.893Z,4.5
2022-09-07T21:09:20.713Z,4
2022-09-07T21:11:22.532Z,4.4
2022-09-07T21:13:24.388Z,3.9
2022-09-07T21:15:26.243Z,4.2
2022-09-07T21:17:28.108Z,3.7
2022-09-07T21:19:33.191Z,3.4
2022-09-07T21:21:38.315Z,3.8
2022-09-07T21:23:36.852Z,4.6
2022-09-07T21:25:38.711Z,4.1
2022-09-07T21:27:40.559Z,3.9
2022-09-07T21:29:42.389Z,3.3
2022-09-07T21:31:44.311Z,10.5
2022-09-07T21:33:49.338Z,3.8
2022-09-07T21:35:51.377Z,2.9
2022-09-07T21:37:53.026Z,2.8
2022-09-07T21:41:56.717Z,2.9
2022-09-07T21:43:58.536Z,3.2
2022-09-07T21:48:05.490Z,3.6
2022-09-07T21:50:07.328Z,3.4
2022-09-07T21:52:09.160Z,3.1
2022-09-07T21:54:37.884Z,3.8
2022-09-07T21:56:44.421Z,3.7
2022-09-07T22:00:46.718Z,4.1
2022-09-07T22:02:48.543Z,4.4
2022-09-07T22:04:50.327Z,2.6
2022-09-07T22:06:52.188Z,2.4
2022-09-07T22:08:54.041Z,2.6
2022-09-07T22:10:55.874Z,2.8
2022-09-07T22:12:57.700Z,4
2022-09-07T22:15:02.851Z,2.6
2022-09-07T22:17:04.676Z,3.5
2022-09-07T22:19:06.499Z,2.4
2022-09-07T22:23:10.201Z,3.1
2022-09-07T22:27:13.886Z,2.8
2022-09-07T22:29:18.972Z,3.7
2022-09-07T22:35:24.503Z,3.5
2022-09-07T22:37:26.364Z,4.3
2022-09-07T22:41:30.055Z,4.2
2022-09-07T22:43:35.209Z,5.6
2022-09-07T22:45:36.975Z,6.5
2022-09-07T22:47:38.820Z,6.3
2022-09-07T22:50:43.238Z,8.1
2022-09-07T22:52:45.086Z,9.1
2022-09-07T22:54:46.890Z,7.4
2022-09-07T22:56:51.993Z,7.6
2022-09-07T22:58:53.836Z,6.9
2022-09-07T23:02:57.528Z,6.9
2022-09-07T23:04:59.475Z,6.8
2022-09-07T23:07:01.208Z,6
2022-09-07T23:09:03.037Z,6.4
2022-09-07T23:11:08.165Z,7.1
2022-09-07T23:13:12.794Z,6.6
2022-09-07T23:15:11.826Z,6.4
2022-09-07T23:17:13.664Z,7
2022-09-07T23:19:15.511Z,6.1
2022-09-07T23:21:17.366Z,6.3
2022-09-07T23:25:24.284Z,6.8
2022-09-07T23:27:26.137Z,6.5
2022-09-07T23:35:33.512Z,6.1
2022-09-07T23:43:44.116Z,8.2
2022-09-07T23:44:46.667Z,5.9
2022-09-07T23:46:48.565Z,6
2022-09-07T23:48:50.342Z,6.9
2022-09-07T23:50:52.180Z,7.2
2022-09-07T23:52:57.277Z,5.6
2022-09-07T23:54:59.117Z,5.2
2022-09-07T23:57:00.968Z,6.8
2022-09-07T23:59:02.810Z,6.3
